sensor_id;sensor_type;location;lat;lon;timestamp;pressure;altitude;pressure_sealevel;temperature;humidity
79534;BME280;68982;52.160;6.736;2024-01-30T00:02:12;102360.03;;;7.19;100.00
79534;BME280;68982;52.160;6.736;2024-01-30T00:04:37;102356.22;;;7.22;100.00
79534;BME280;68982;52.160;6.736;2024-01-30T00:07:03;102356.00;;;7.25;100.00
79534;BME280;68982;52.160;6.736;2024-01-30T00:09:28;102353.16;;;7.26;100.00
79534;BME280;68982;52.160;6.736;2024-01-30T00:11:54;102351.94;;;7.31;100.00
79534;BME280;68982;52.160;6.736;2024-01-30T00:14:19;102359.59;;;7.35;100.00
79534;BME280;68982;52.160;6.736;2024-01-30T00:16:45;102343.47;;;7.35;100.00
79534;BME280;68982;52.160;6.736;2024-01-30T00:19:10;102341.31;;;7.29;100.00
79534;BME280;68982;52.160;6.736;2024-01-30T00:21:35;102347.16;;;7.34;100.00
79534;BME280;68982;52.160;6.736;2024-01-30T00:24:01;102342.97;;;7.41;100.00
79534;BME280;68982;52.160;6.736;2024-01-30T00:26:26;102334.72;;;7.33;100.00
79534;BME280;68982;52.160;6.736;2024-01-30T00:28:52;102342.03;;;7.31;100.00
79534;BME280;68982;52.160;6.736;2024-01-30T00:31:17;102335.94;;;7.29;100.00
79534;BME280;68982;52.160;6.736;2024-01-30T00:33:43;102331.38;;;7.20;100.00
79534;BME280;68982;52.160;6.736;2024-01-30T00:36:09;102342.19;;;7.30;100.00
79534;BME280;68982;52.160;6.736;2024-01-30T00:38:35;102333.41;;;7.28;100.00
79534;BME280;68982;52.160;6.736;2024-01-30T00:41:01;102336.72;;;7.20;100.00
79534;BME280;68982;52.160;6.736;2024-01-30T00:43:29;102338.50;;;7.31;100.00
79534;BME280;68982;52.160;6.736;2024-01-30T00:45:56;102340.22;;;7.32;100.00
79534;BME280;68982;52.160;6.736;2024-01-30T00:48:21;102335.25;;;7.27;100.00
79534;BME280;68982;52.160;6.736;2024-01-30T00:50:46;102338.38;;;7.32;100.00
79534;BME280;68982;52.160;6.736;2024-01-30T00:53:12;102335.72;;;7.32;100.00
79534;BME280;68982;52.160;6.736;2024-01-30T00:55:38;102336.22;;;7.26;100.00
79534;BME280;68982;52.160;6.736;2024-01-30T00:58:03;102339.22;;;7.33;100.00
79534;BME280;68982;52.160;6.736;2024-01-30T01:00:29;102332.69;;;7.25;100.00
79534;BME280;68982;52.160;6.736;2024-01-30T01:02:55;102333.25;;;7.29;100.00
79534;BME280;68982;52.160;6.736;2024-01-30T01:05:21;102338.63;;;7.29;100.00
79534;BME280;68982;52.160;6.736;2024-01-30T01:07:46;102336.50;;;7.23;100.00
79534;BME280;68982;52.160;6.736;2024-01-30T01:10:13;102325.16;;;7.19;100.00
79534;BME280;68982;52.160;6.736;2024-01-30T01:12:39;102330.41;;;7.21;100.00
79534;BME280;68982;52.160;6.736;2024-01-30T01:15:05;102328.56;;;7.21;100.00
79534;BME280;68982;52.160;6.736;2024-01-30T01:17:30;102325.66;;;7.13;100.00
79534;BME280;68982;52.160;6.736;2024-01-30T01:19:57;102334.59;;;7.14;100.00
79534;BME280;68982;52.160;6.736;2024-01-30T01:22:22;102345.31;;;7.14;100.00
79534;BME280;68982;52.160;6.736;2024-01-30T01:24:48;102331.91;;;7.14;100.00
79534;BME280;68982;52.160;6.736;2024-01-30T01:27:13;102323.31;;;6.99;100.00
79534;BME280;68982;52.160;6.736;2024-01-30T01:29:39;102333.00;;;7.11;100.00
79534;BME280;68982;52.160;6.736;2024-01-30T01:32:04;102333.38;;;7.06;100.00
79534;BME280;68982;52.160;6.736;2024-01-30T01:34:29;102322.69;;;6.95;100.00
79534;BME280;68982;52.160;6.736;2024-01-30T01:36:55;102333.31;;;6.97;100.00
79534;BME280;68982;52.160;6.736;2024-01-30T01:39:21;102325.88;;;6.89;100.00
79534;BME280;68982;52.160;6.736;2024-01-30T01:41:48;102341.09;;;7.00;100.00
79534;BME280;68982;52.160;6.736;2024-01-30T01:44:13;102337.94;;;6.95;100.00
79534;BME280;68982;52.160;6.736;2024-01-30T01:46:39;102333.81;;;6.91;100.00
79534;BME280;68982;52.160;6.736;2024-01-30T01:49:05;102343.44;;;6.93;100.00
79534;BME280;68982;52.160;6.736;2024-01-30T01:51:31;102343.81;;;6.89;100.00
79534;BME280;68982;52.160;6.736;2024-01-30T01:54:01;102334.19;;;6.86;100.00
79534;BME280;68982;52.160;6.736;2024-01-30T01:56:29;102325.66;;;6.92;100.00
79534;BME280;68982;52.160;6.736;2024-01-30T01:58:55;102334.31;;;6.84;100.00
79534;BME280;68982;52.160;6.736;2024-01-30T02:01:21;102332.13;;;6.90;100.00
79534;BME280;68982;52.160;6.736;2024-01-30T02:03:47;102319.34;;;6.82;100.00
79534;BME280;68982;52.160;6.736;2024-01-30T02:06:15;102314.47;;;6.87;100.00
79534;BME280;68982;52.160;6.736;2024-01-30T02:08:41;102317.50;;;6.82;100.00
79534;BME280;68982;52.160;6.736;2024-01-30T02:11:07;102311.44;;;6.80;100.00
79534;BME280;68982;52.160;6.736;2024-01-30T02:13:32;102318.00;;;6.88;100.00
79534;BME280;68982;52.160;6.736;2024-01-30T02:15:57;102304.97;;;6.83;100.00
79534;BME280;68982;52.160;6.736;2024-01-30T02:18:23;102294.75;;;6.77;100.00
79534;BME280;68982;52.160;6.736;2024-01-30T02:20:48;102302.78;;;6.77;100.00
79534;BME280;68982;52.160;6.736;2024-01-30T02:23:16;102309.69;;;6.91;100.00
79534;BME280;68982;52.160;6.736;2024-01-30T02:25:42;102293.91;;;6.76;100.00
79534;BME280;68982;52.160;6.736;2024-01-30T02:28:13;102301.81;;;6.78;100.00
79534;BME280;68982;52.160;6.736;2024-01-30T02:30:47;102293.31;;;6.73;100.00
79534;BME280;68982;52.160;6.736;2024-01-30T02:33:13;102287.81;;;6.74;100.00
79534;BME280;68982;52.160;6.736;2024-01-30T02:35:38;102290.22;;;6.77;100.00
79534;BME280;68982;52.160;6.736;2024-01-30T02:38:04;102288.06;;;6.71;100.00
79534;BME280;68982;52.160;6.736;2024-01-30T02:40:30;102295.03;;;6.74;100.00
79534;BME280;68982;52.160;6.736;2024-01-30T02:42:56;102294.41;;;6.70;100.00
79534;BME280;68982;52.160;6.736;2024-01-30T02:45:21;102291.63;;;6.72;100.00
79534;BME280;68982;52.160;6.736;2024-01-30T02:47:47;102293.31;;;6.73;100.00
79534;BME280;68982;52.160;6.736;2024-01-30T02:50:12;102278.72;;;6.66;100.00
79534;BME280;68982;52.160;6.736;2024-01-30T02:52:38;102286.28;;;6.60;100.00
79534;BME280;68982;52.160;6.736;2024-01-30T02:55:03;102283.72;;;6.59;100.00
79534;BME280;68982;52.160;6.736;2024-01-30T02:57:29;102275.44;;;6.62;100.00
79534;BME280;68982;52.160;6.736;2024-01-30T02:59:55;102278.44;;;6.69;100.00
79534;BME280;68982;52.160;6.736;2024-01-30T03:02:20;102258.28;;;6.53;100.00
79534;BME280;68982;52.160;6.736;2024-01-30T03:04:46;102269.94;;;6.63;100.00
79534;BME280;68982;52.160;6.736;2024-01-30T03:07:12;102273.75;;;6.61;100.00
79534;BME280;68982;52.160;6.736;2024-01-30T03:09:37;102276.66;;;6.58;100.00
79534;BME280;68982;52.160;6.736;2024-01-30T03:12:03;102273.28;;;6.56;100.00
79534;BME280;68982;52.160;6.736;2024-01-30T03:14:31;102271.06;;;6.61;100.00
79534;BME280;68982;52.160;6.736;2024-01-30T03:16:56;102267.31;;;6.52;100.00
79534;BME280;68982;52.160;6.736;2024-01-30T03:19:21;102271.22;;;6.48;100.00
79534;BME280;68982;52.160;6.736;2024-01-30T03:21:46;102272.06;;;6.49;100.00
79534;BME280;68982;52.160;6.736;2024-01-30T03:24:12;102259.78;;;6.46;100.00
79534;BME280;68982;52.160;6.736;2024-01-30T03:26:37;102254.19;;;6.38;100.00
79534;BME280;68982;52.160;6.736;2024-01-30T03:29:02;102254.53;;;6.44;100.00
79534;BME280;68982;52.160;6.736;2024-01-30T03:31:28;102246.75;;;6.41;100.00
79534;BME280;68982;52.160;6.736;2024-01-30T03:33:53;102255.41;;;6.45;100.00
79534;BME280;68982;52.160;6.736;2024-01-30T03:36:19;102249.31;;;6.43;100.00
79534;BME280;68982;52.160;6.736;2024-01-30T03:38:44;102249.78;;;6.48;100.00
79534;BME280;68982;52.160;6.736;2024-01-30T03:41:10;102246.25;;;6.48;100.00
79534;BME280;68982;52.160;6.736;2024-01-30T03:43:36;102247.75;;;6.40;100.00
79534;BME280;68982;52.160;6.736;2024-01-30T03:46:02;102248.22;;;6.46;100.00
79534;BME280;68982;52.160;6.736;2024-01-30T03:48:28;102239.31;;;6.45;100.00
79534;BME280;68982;52.160;6.736;2024-01-30T03:50:53;102238.59;;;6.43;100.00
79534;BME280;68982;52.160;6.736;2024-01-30T03:53:19;102235.06;;;6.42;100.00
79534;BME280;68982;52.160;6.736;2024-01-30T03:55:44;102230.69;;;6.41;100.00
79534;BME280;68982;52.160;6.736;2024-01-30T03:58:09;102242.00;;;6.45;100.00
79534;BME280;68982;52.160;6.736;2024-01-30T04:00:35;102229.09;;;6.39;100.00
79534;BME280;68982;52.160;6.736;2024-01-30T04:03:00;102232.47;;;6.52;100.00
79534;BME280;68982;52.160;6.736;2024-01-30T04:05:25;102237.94;;;6.51;100.00
79534;BME280;68982;52.160;6.736;2024-01-30T04:07:51;102243.69;;;6.46;100.00
79534;BME280;68982;52.160;6.736;2024-01-30T04:10:16;102234.69;;;6.47;100.00
79534;BME280;68982;52.160;6.736;2024-01-30T04:12:42;102234.41;;;6.50;100.00
79534;BME280;68982;52.160;6.736;2024-01-30T04:15:07;102228.13;;;6.40;100.00
79534;BME280;68982;52.160;6.736;2024-01-30T04:17:33;102227.28;;;6.39;100.00
79534;BME280;68982;52.160;6.736;2024-01-30T04:19:58;102231.53;;;6.42;100.00
79534;BME280;68982;52.160;6.736;2024-01-30T04:22:23;102222.38;;;6.44;100.00
79534;BME280;68982;52.160;6.736;2024-01-30T04:24:49;102218.63;;;6.47;100.00
79534;BME280;68982;52.160;6.736;2024-01-30T04:27:14;102196.84;;;6.40;100.00
79534;BME280;68982;52.160;6.736;2024-01-30T04:29:39;102215.31;;;6.43;100.00
79534;BME280;68982;52.160;6.736;2024-01-30T04:32:05;102216.06;;;6.46;100.00
79534;BME280;68982;52.160;6.736;2024-01-30T04:34:30;102205.59;;;6.42;100.00
79534;BME280;68982;52.160;6.736;2024-01-30T04:36:56;102209.50;;;6.38;100.00
79534;BME280;68982;52.160;6.736;2024-01-30T04:39:21;102212.53;;;6.45;100.00
79534;BME280;68982;52.160;6.736;2024-01-30T04:41:47;102205.34;;;6.46;100.00
79534;BME280;68982;52.160;6.736;2024-01-30T04:44:12;102202.53;;;6.47;100.00
79534;BME280;68982;52.160;6.736;2024-01-30T04:46:37;102206.56;;;6.41;100.00
79534;BME280;68982;52.160;6.736;2024-01-30T04:49:02;102198.25;;;6.44;100.00
79534;BME280;68982;52.160;6.736;2024-01-30T04:51:28;102197.91;;;6.49;100.00
79534;BME280;68982;52.160;6.736;2024-01-30T04:53:54;102198.03;;;6.48;100.00
79534;BME280;68982;52.160;6.736;2024-01-30T04:56:20;102193.88;;;6.43;100.00
79534;BME280;68982;52.160;6.736;2024-01-30T04:58:45;102197.03;;;6.49;100.00
79534;BME280;68982;52.160;6.736;2024-01-30T05:01:15;102195.84;;;6.41;100.00
79534;BME280;68982;52.160;6.736;2024-01-30T05:03:40;102192.44;;;6.39;100.00
79534;BME280;68982;52.160;6.736;2024-01-30T05:06:06;102204.72;;;6.42;100.00
79534;BME280;68982;52.160;6.736;2024-01-30T05:08:31;102201.31;;;6.40;100.00
79534;BME280;68982;52.160;6.736;2024-01-30T05:11:00;102208.19;;;6.33;100.00
79534;BME280;68982;52.160;6.736;2024-01-30T05:13:26;102216.94;;;6.35;100.00
79534;BME280;68982;52.160;6.736;2024-01-30T05:15:51;102209.88;;;6.34;100.00
79534;BME280;68982;52.160;6.736;2024-01-30T05:18:16;102215.72;;;6.39;100.00
79534;BME280;68982;52.160;6.736;2024-01-30T05:20:42;102209.88;;;6.34;100.00
79534;BME280;68982;52.160;6.736;2024-01-30T05:23:07;102206.81;;;6.38;100.00
79534;BME280;68982;52.160;6.736;2024-01-30T05:25:33;102213.75;;;6.41;100.00
79534;BME280;68982;52.160;6.736;2024-01-30T05:27:58;102204.88;;;6.40;100.00
79534;BME280;68982;52.160;6.736;2024-01-30T05:30:24;102202.03;;;6.42;100.00
79534;BME280;68982;52.160;6.736;2024-01-30T05:32:49;102193.28;;;6.40;100.00
79534;BME280;68982;52.160;6.736;2024-01-30T05:35:15;102202.56;;;6.36;100.00
79534;BME280;68982;52.160;6.736;2024-01-30T05:37:40;102207.78;;;6.37;100.00
79534;BME280;68982;52.160;6.736;2024-01-30T05:40:06;102207.94;;;6.36;100.00
79534;BME280;68982;52.160;6.736;2024-01-30T05:42:32;102199.50;;;6.40;100.00
79534;BME280;68982;52.160;6.736;2024-01-30T05:44:57;102195.38;;;6.36;100.00
79534;BME280;68982;52.160;6.736;2024-01-30T05:47:22;102199.63;;;6.39;100.00
79534;BME280;68982;52.160;6.736;2024-01-30T05:49:47;102183.91;;;6.46;100.00
79534;BME280;68982;52.160;6.736;2024-01-30T05:52:13;102189.25;;;6.46;100.00
79534;BME280;68982;52.160;6.736;2024-01-30T05:54:38;102189.25;;;6.46;100.00
79534;BME280;68982;52.160;6.736;2024-01-30T05:57:04;102192.72;;;6.57;100.00
79534;BME280;68982;52.160;6.736;2024-01-30T05:59:29;102175.19;;;6.53;100.00
79534;BME280;68982;52.160;6.736;2024-01-30T06:01:54;102186.41;;;6.58;100.00
79534;BME280;68982;52.160;6.736;2024-01-30T06:04:20;102188.31;;;6.68;100.00
79534;BME280;68982;52.160;6.736;2024-01-30T06:06:45;102191.72;;;6.70;100.00
79534;BME280;68982;52.160;6.736;2024-01-30T06:09:10;102182.66;;;6.71;100.00
79534;BME280;68982;52.160;6.736;2024-01-30T06:11:37;102186.06;;;6.73;100.00
79534;BME280;68982;52.160;6.736;2024-01-30T06:14:03;102192.44;;;6.72;100.00
79534;BME280;68982;52.160;6.736;2024-01-30T06:16:28;102192.88;;;6.77;100.00
79534;BME280;68982;52.160;6.736;2024-01-30T06:18:55;102184.78;;;6.67;100.00
79534;BME280;68982;52.160;6.736;2024-01-30T06:21:20;102188.63;;;6.74;100.00
79534;BME280;68982;52.160;6.736;2024-01-30T06:23:46;102186.91;;;6.73;100.00
79534;BME280;68982;52.160;6.736;2024-01-30T06:26:11;102203.16;;;6.93;100.00
79534;BME280;68982;52.160;6.736;2024-01-30T06:28:36;102206.34;;;6.87;100.00
79534;BME280;68982;52.160;6.736;2024-01-30T06:31:02;102202.94;;;6.84;100.00
79534;BME280;68982;52.160;6.736;2024-01-30T06:33:27;102193.22;;;6.83;100.00
79534;BME280;68982;52.160;6.736;2024-01-30T06:35:52;102199.16;;;6.87;100.00
79534;BME280;68982;52.160;6.736;2024-01-30T06:38:18;102190.13;;;6.88;100.00
79534;BME280;68982;52.160;6.736;2024-01-30T06:40:43;102196.66;;;6.95;100.00
79534;BME280;68982;52.160;6.736;2024-01-30T06:43:08;102195.53;;;6.98;100.00
79534;BME280;68982;52.160;6.736;2024-01-30T06:45:34;102203.19;;;7.02;100.00
79534;BME280;68982;52.160;6.736;2024-01-30T06:48:00;102187.50;;;6.98;100.00
79534;BME280;68982;52.160;6.736;2024-01-30T06:50:26;102184.81;;;6.98;100.00
79534;BME280;68982;52.160;6.736;2024-01-30T06:52:51;102202.56;;;7.10;100.00
79534;BME280;68982;52.160;6.736;2024-01-30T06:55:17;102197.47;;;7.07;100.00
79534;BME280;68982;52.160;6.736;2024-01-30T06:57:42;102203.66;;;7.08;100.00
79534;BME280;68982;52.160;6.736;2024-01-30T07:00:08;102196.34;;;7.10;100.00
79534;BME280;68982;52.160;6.736;2024-01-30T07:02:33;102204.56;;;7.18;100.00
79534;BME280;68982;52.160;6.736;2024-01-30T07:04:59;102206.00;;;7.22;100.00
79534;BME280;68982;52.160;6.736;2024-01-30T07:07:24;102196.25;;;7.21;100.00
79534;BME280;68982;52.160;6.736;2024-01-30T07:09:49;102201.47;;;7.22;100.00
79534;BME280;68982;52.160;6.736;2024-01-30T07:12:17;102200.19;;;7.17;100.00
79534;BME280;68982;52.160;6.736;2024-01-30T07:14:43;102196.50;;;7.18;100.00
79534;BME280;68982;52.160;6.736;2024-01-30T07:17:08;102194.69;;;7.18;100.00
79534;BME280;68982;52.160;6.736;2024-01-30T07:19:34;102202.34;;;7.23;100.00
79534;BME280;68982;52.160;6.736;2024-01-30T07:22:00;102203.06;;;7.25;100.00
79534;BME280;68982;52.160;6.736;2024-01-30T07:24:26;102210.31;;;7.34;100.00
79534;BME280;68982;52.160;6.736;2024-01-30T07:26:51;102206.91;;;7.32;100.00
79534;BME280;68982;52.160;6.736;2024-01-30T07:29:16;102206.78;;;7.34;100.00
79534;BME280;68982;52.160;6.736;2024-01-30T07:31:42;102201.41;;;7.34;100.00
79534;BME280;68982;52.160;6.736;2024-01-30T07:34:08;102197.63;;;7.36;100.00
79534;BME280;68982;52.160;6.736;2024-01-30T07:36:33;102209.94;;;7.48;100.00
79534;BME280;68982;52.160;6.736;2024-01-30T07:38:59;102204.72;;;7.47;100.00
79534;BME280;68982;52.160;6.736;2024-01-30T07:41:24;102206.00;;;7.53;100.00
79534;BME280;68982;52.160;6.736;2024-01-30T07:43:50;102219.03;;;7.57;100.00
79534;BME280;68982;52.160;6.736;2024-01-30T07:46:15;102217.78;;;7.61;100.00
79534;BME280;68982;52.160;6.736;2024-01-30T07:48:41;102229.63;;;7.59;100.00
79534;BME280;68982;52.160;6.736;2024-01-30T07:51:06;102226.09;;;7.58;100.00
79534;BME280;68982;52.160;6.736;2024-01-30T07:53:31;102219.88;;;7.58;100.00
79534;BME280;68982;52.160;6.736;2024-01-30T07:55:57;102223.53;;;7.57;100.00
79534;BME280;68982;52.160;6.736;2024-01-30T07:58:22;102235.03;;;7.68;100.00
79534;BME280;68982;52.160;6.736;2024-01-30T08:00:49;102231.50;;;7.68;100.00
79534;BME280;68982;52.160;6.736;2024-01-30T08:03:14;102221.69;;;7.57;100.00
79534;BME280;68982;52.160;6.736;2024-01-30T08:05:41;102227.97;;;7.67;100.00
79534;BME280;68982;52.160;6.736;2024-01-30T08:08:07;102235.44;;;7.64;100.00
79534;BME280;68982;52.160;6.736;2024-01-30T08:10:32;102221.75;;;7.67;100.00
79534;BME280;68982;52.160;6.736;2024-01-30T08:12:58;102240.59;;;7.77;100.00
79534;BME280;68982;52.160;6.736;2024-01-30T08:15:23;102236.75;;;7.70;100.00
79534;BME280;68982;52.160;6.736;2024-01-30T08:17:48;102242.56;;;7.84;100.00
79534;BME280;68982;52.160;6.736;2024-01-30T08:20:14;102254.44;;;7.82;100.00
79534;BME280;68982;52.160;6.736;2024-01-30T08:22:39;102255.28;;;7.82;100.00
79534;BME280;68982;52.160;6.736;2024-01-30T08:25:08;102247.94;;;7.84;100.00
79534;BME280;68982;52.160;6.736;2024-01-30T08:27:35;102242.56;;;7.84;100.00
79534;BME280;68982;52.160;6.736;2024-01-30T08:30:01;102249.91;;;7.82;100.00
79534;BME280;68982;52.160;6.736;2024-01-30T08:32:27;102260.41;;;7.85;100.00
79534;BME280;68982;52.160;6.736;2024-01-30T08:34:52;102248.66;;;7.86;100.00
79534;BME280;68982;52.160;6.736;2024-01-30T08:37:17;102248.94;;;7.83;100.00
79534;BME280;68982;52.160;6.736;2024-01-30T08:39:43;102253.22;;;7.96;100.00
79534;BME280;68982;52.160;6.736;2024-01-30T08:42:09;102263.13;;;7.95;100.00
79534;BME280;68982;52.160;6.736;2024-01-30T08:44:35;102258.16;;;7.91;100.00
79534;BME280;68982;52.160;6.736;2024-01-30T08:47:00;102258.16;;;7.91;100.00
79534;BME280;68982;52.160;6.736;2024-01-30T08:49:26;102261.97;;;7.98;100.00
79534;BME280;68982;52.160;6.736;2024-01-30T08:51:51;102253.69;;;8.01;100.00
79534;BME280;68982;52.160;6.736;2024-01-30T08:54:17;102253.69;;;8.01;100.00
79534;BME280;68982;52.160;6.736;2024-01-30T08:56:42;102248.13;;;7.93;100.00
79534;BME280;68982;52.160;6.736;2024-01-30T08:59:08;102257.78;;;8.05;100.00
79534;BME280;68982;52.160;6.736;2024-01-30T09:01:33;102257.06;;;8.03;100.00
79534;BME280;68982;52.160;6.736;2024-01-30T09:03:59;102262.75;;;8.09;100.00
79534;BME280;68982;52.160;6.736;2024-01-30T09:06:24;102259.19;;;8.09;100.00
79534;BME280;68982;52.160;6.736;2024-01-30T09:08:52;102265.72;;;8.16;100.00
79534;BME280;68982;52.160;6.736;2024-01-30T09:11:18;102265.56;;;8.18;100.00
79534;BME280;68982;52.160;6.736;2024-01-30T09:13:43;102264.19;;;8.23;100.00
79534;BME280;68982;52.160;6.736;2024-01-30T09:16:08;102261.38;;;8.25;100.00
79534;BME280;68982;52.160;6.736;2024-01-30T09:18:34;102271.00;;;8.27;100.00
79534;BME280;68982;52.160;6.736;2024-01-30T09:20:59;102259.38;;;8.27;100.00
79534;BME280;68982;52.160;6.736;2024-01-30T09:23:26;102257.56;;;8.37;100.00
79534;BME280;68982;52.160;6.736;2024-01-30T09:25:52;102253.03;;;8.38;100.00
79534;BME280;68982;52.160;6.736;2024-01-30T09:28:17;102262.28;;;8.45;100.00
79534;BME280;68982;52.160;6.736;2024-01-30T09:30:45;102259.00;;;8.51;100.00
79534;BME280;68982;52.160;6.736;2024-01-30T09:33:10;102253.50;;;8.53;100.00
79534;BME280;68982;52.160;6.736;2024-01-30T09:35:36;102269.38;;;8.65;100.00
79534;BME280;68982;52.160;6.736;2024-01-30T09:38:02;102260.88;;;8.80;100.00
79534;BME280;68982;52.160;6.736;2024-01-30T09:40:27;102264.56;;;8.98;100.00
79534;BME280;68982;52.160;6.736;2024-01-30T09:42:53;102259.19;;;8.98;100.00
79534;BME280;68982;52.160;6.736;2024-01-30T09:45:20;102259.47;;;9.05;100.00
79534;BME280;68982;52.160;6.736;2024-01-30T09:47:48;102256.34;;;9.09;100.00
79534;BME280;68982;52.160;6.736;2024-01-30T09:50:15;102256.34;;;9.09;100.00
79534;BME280;68982;52.160;6.736;2024-01-30T09:52:41;102266.22;;;9.19;100.00
79534;BME280;68982;52.160;6.736;2024-01-30T09:55:09;102265.81;;;9.04;100.00
79534;BME280;68982;52.160;6.736;2024-01-30T09:57:35;102269.34;;;9.04;100.00
79534;BME280;68982;52.160;6.736;2024-01-30T10:00:00;102280.56;;;9.09;100.00
79534;BME280;68982;52.160;6.736;2024-01-30T10:02:26;102279.38;;;9.22;100.00
79534;BME280;68982;52.160;6.736;2024-01-30T10:04:52;102273.03;;;9.13;100.00
79534;BME280;68982;52.160;6.736;2024-01-30T10:07:18;102273.03;;;9.13;100.00
79534;BME280;68982;52.160;6.736;2024-01-30T10:09:44;102285.47;;;9.24;100.00
79534;BME280;68982;52.160;6.736;2024-01-30T10:12:10;102289.59;;;9.28;100.00
79534;BME280;68982;52.160;6.736;2024-01-30T10:14:39;102289.28;;;9.31;100.00
79534;BME280;68982;52.160;6.736;2024-01-30T10:17:06;102273.25;;;9.39;100.00
79534;BME280;68982;52.160;6.736;2024-01-30T10:19:32;102281.72;;;9.54;100.00
79534;BME280;68982;52.160;6.736;2024-01-30T10:21:59;102276.34;;;9.44;100.00
79534;BME280;68982;52.160;6.736;2024-01-30T10:24:25;102280.59;;;9.57;100.00
79534;BME280;68982;52.160;6.736;2024-01-30T10:26:51;102289.66;;;9.55;100.00
79534;BME280;68982;52.160;6.736;2024-01-30T10:29:17;102285.41;;;9.53;100.00
79534;BME280;68982;52.160;6.736;2024-01-30T10:31:42;102277.63;;;9.50;100.00
79534;BME280;68982;52.160;6.736;2024-01-30T10:34:07;102278.16;;;9.53;100.00
79534;BME280;68982;52.160;6.736;2024-01-30T10:36:40;102268.41;;;9.52;100.00
79534;BME280;68982;52.160;6.736;2024-01-30T10:39:08;102265.16;;;9.49;100.00
79534;BME280;68982;52.160;6.736;2024-01-30T10:41:39;102265.41;;;9.55;100.00
79534;BME280;68982;52.160;6.736;2024-01-30T10:44:10;102271.94;;;9.63;100.00
79534;BME280;68982;52.160;6.736;2024-01-30T10:46:38;102276.56;;;9.70;100.00
79534;BME280;68982;52.160;6.736;2024-01-30T10:49:04;102266.94;;;9.68;100.00
79534;BME280;68982;52.160;6.736;2024-01-30T10:51:31;102279.22;;;9.80;100.00
79534;BME280;68982;52.160;6.736;2024-01-30T10:53:57;102275.66;;;9.80;100.00
79534;BME280;68982;52.160;6.736;2024-01-30T10:56:23;102280.22;;;9.79;100.00
79534;BME280;68982;52.160;6.736;2024-01-30T10:58:50;102280.81;;;9.73;100.00
79534;BME280;68982;52.160;6.736;2024-01-30T11:01:16;102273.88;;;9.70;100.00
79534;BME280;68982;52.160;6.736;2024-01-30T11:03:42;102282.78;;;9.81;100.00
79534;BME280;68982;52.160;6.736;2024-01-30T11:06:11;102286.84;;;9.85;100.00
79534;BME280;68982;52.160;6.736;2024-01-30T11:08:39;102290.66;;;9.92;100.00
79534;BME280;68982;52.160;6.736;2024-01-30T11:11:08;102285.53;;;9.99;100.00
79534;BME280;68982;52.160;6.736;2024-01-30T11:13:34;102278.84;;;10.03;100.00
79534;BME280;68982;52.160;6.736;2024-01-30T11:16:06;102282.06;;;10.06;100.00
79534;BME280;68982;52.160;6.736;2024-01-30T11:18:33;102280.38;;;10.05;100.00
79534;BME280;68982;52.160;6.736;2024-01-30T11:21:01;102280.78;;;10.10;100.00
79534;BME280;68982;52.160;6.736;2024-01-30T11:23:27;102290.56;;;10.11;100.00
79534;BME280;68982;52.160;6.736;2024-01-30T11:25:54;102282.31;;;10.13;100.00
79534;BME280;68982;52.160;6.736;2024-01-30T11:28:21;102280.78;;;10.10;100.00
79534;BME280;68982;52.160;6.736;2024-01-30T11:30:47;102287.44;;;10.16;100.00
79534;BME280;68982;52.160;6.736;2024-01-30T11:33:27;102288.53;;;10.23;100.00
79534;BME280;68982;52.160;6.736;2024-01-30T11:35:57;102284.03;;;10.14;100.00
79534;BME280;68982;52.160;6.736;2024-01-30T11:38:22;102288.41;;;10.15;100.00
79534;BME280;68982;52.160;6.736;2024-01-30T11:40:48;102292.25;;;10.12;100.00
79534;BME280;68982;52.160;6.736;2024-01-30T11:43:15;102292.41;;;10.11;100.00
79534;BME280;68982;52.160;6.736;2024-01-30T11:45:41;102302.47;;;10.09;100.00
79534;BME280;68982;52.160;6.736;2024-01-30T11:48:08;102300.25;;;10.04;100.00
79534;BME280;68982;52.160;6.736;2024-01-30T11:50:35;102300.41;;;10.03;100.00
79534;BME280;68982;52.160;6.736;2024-01-30T11:53:04;102293.00;;;10.05;100.00
79534;BME280;68982;52.160;6.736;2024-01-30T11:55:30;102288.31;;;10.07;100.00
79534;BME280;68982;52.160;6.736;2024-01-30T11:57:57;102301.50;;;10.10;100.00
79534;BME280;68982;52.160;6.736;2024-01-30T12:00:23;102299.34;;;10.13;100.00
79534;BME280;68982;52.160;6.736;2024-01-30T12:02:50;102286.22;;;10.28;100.00
79534;BME280;68982;52.160;6.736;2024-01-30T12:05:16;102284.88;;;10.60;100.00
79534;BME280;68982;52.160;6.736;2024-01-30T12:07:44;102284.47;;;11.53;100.00
79534;BME280;68982;52.160;6.736;2024-01-30T12:10:09;102279.06;;;11.27;100.00
79534;BME280;68982;52.160;6.736;2024-01-30T12:12:35;102280.91;;;11.26;100.00
79534;BME280;68982;52.160;6.736;2024-01-30T12:15:01;102273.22;;;11.13;100.00
79534;BME280;68982;52.160;6.736;2024-01-30T12:17:29;102269.69;;;10.95;100.00
79534;BME280;68982;52.160;6.736;2024-01-30T12:22:32;102274.94;;;11.14;100.00
79534;BME280;68982;52.160;6.736;2024-01-30T12:24:57;102269.13;;;11.09;100.00
79534;BME280;68982;52.160;6.736;2024-01-30T12:27:23;102273.91;;;11.15;100.00
79534;BME280;68982;52.160;6.736;2024-01-30T12:29:55;102260.41;;;11.15;100.00
79534;BME280;68982;52.160;6.736;2024-01-30T12:32:22;102266.59;;;11.08;100.00
79534;BME280;68982;52.160;6.736;2024-01-30T12:34:48;102272.25;;;10.96;100.00
79534;BME280;68982;52.160;6.736;2024-01-30T12:37:13;102274.56;;;10.91;100.00
79534;BME280;68982;52.160;6.736;2024-01-30T12:39:38;102272.03;;;10.90;100.00
79534;BME280;68982;52.160;6.736;2024-01-30T12:42:04;102276.72;;;10.88;100.00
79534;BME280;68982;52.160;6.736;2024-01-30T12:44:29;102268.56;;;10.79;100.00